Архив погоды в Кирове

Метеограмма Киров
Воскресенье, 22 Июля
Время местн. Темп Ветер Видим Явления Облачность нижн/средн/верх Атм. давл. Влжн Точка росы ВНГО R Сост. почвы Tg s
Напр Скр Прв ур.ст ур.м изм
03:00 +15.2° В 2 4 20 км - ясно 751 765 +0.5 80% +11.7° более 2.5 км - - - -
00:00 +17.2° В 2 3 20 км - ясно 751 765 +0.5 73% +12.3° более 2.5 км - - - -
Суббота, 21 Июля
Время местн. Темп Ветер Видим Явления Облачность нижн/средн/верх Атм. давл. Влжн Точка росы ВНГО R Сост. почвы Tg s
Напр Скр Прв ур.ст ур.м изм
21:00 +20° В 2 3 20 км - ясно 750 764 +0.4 61% +12.3° более 2.5 км - - - -
18:00 +23.6° В 3 6 20 км - переменная облачность 750 763 -0.3 46% +11.3° - - - - -
15:00 +24.6° В,Ю-В 4 8 20 км - переменная облачность 750 764 0 46% +12.2° 1 км - - - -
12:00 +23.5° В 4 8 20 км - переменная облачность 750 764 0 51% +12.9° 1 км - - - -
09:00 +20.9° В 5 10 20 км - незначительная облачность 750 764 0 62% +13.4° 1 км - - - -
06:00 +17.6° В 4 7 20 км - ясно 750 764 +0.6 73% +12.8° более 2.5 км - Сухая (без трещин) - -
03:00 +17.2° В 3 5 20 км - ясно 749 763 +0.2 77% +13.1° более 2.5 км - - - -
00:00 +19.4° В 2 5 20 км - переменная облачность 749 763 +0.2 84% +16.7° 1 км - - - -
Пятница, 20 Июля
Время местн. Темп Ветер Видим Явления Облачность нижн/средн/верх Атм. давл. Влжн Точка росы ВНГО R Сост. почвы Tg s
Напр Скр Прв ур.ст ур.м изм
21:00 +21.7° В 2 3 20 км - переменная облачность 749 763 +1 66% +15.1° 1 км - - - -
18:00 +24.6° В 3 7 20 км - переменная облачность 748 762 -0.2 60% +16.3° 1 км - - - -
15:00 +25.6° В 4 8 20 км - преимущественно облачно 748 762 +0.1 53% +15.2° 1 км - - - -
12:00 +24.6° В 4 9 20 км - облачно с прояснениями 748 762 +0.2 57% +15.5° 1 км - - - -
09:00 +21.7° В 3 6 20 км - преимущественно облачно 748 762 +0.1 76% +17.2° - - - - -
06:00 +18.8° В 2 5 20 км - облачно 748 762 +0.5 90% +17.2° - - Влажная (без луж) - -
03:00 +18.4° В 2 4 20 км - облачно 747 761 +0.8 92% +17.1° - - - - -
00:00 +19.4° В 2 5 20 км - преимущественно облачно 747 760 +0.2 92% +18° 1 км - - - -
Четверг, 19 Июля
Время местн. Темп Ветер Видим Явления Облачность нижн/средн/верх Атм. давл. Влжн Точка росы ВНГО R Сост. почвы Tg s
Напр Скр Прв ур.ст ур.м изм
21:00 +20.6° В 3 6 20 км - облачно 747 760 +0.8 84% +17.8° - - - - -
18:00 +21° В,С-В 3 6 20 км - облачно 746 759 +0.4 81% +17.6° 1 км - - - -
15:00 +20.4° В 3 7 20 км небо без изменений {ливневые осадки} облачно 745 759 +1.1 88% +18.3° 1 км - - - -
12:00 +19.8° В 4 8 10 км слабый ливневый дождь облачно 744 758 +0.8 90% +18.1° 600 м - - - -
09:00 +18.8° В 4 9 4 км слабый ливневый дождь облачно 743 757 +0.3 94% +17.8° 600 м - - - -
06:00 +19.4° В,С-В 3 6 20 км - преимущественно облачно 743 757 0 90% +17.7° 600 м - Влажная (без луж) - -
03:00 +19.1° С-В 2 3 20 км ливневый дождь облачно 743 757 -0.1 97% +18.6° 600 м - - - -
00:00 +19.4° С-В 1 2 20 км ливневый дождь облачно 743 757 -0.3 94% +18.4° 600 м - - - -